Time;durP1;ratioP1;P1;durP2;ratioP2;P2;SDS_P1;SDS_P2;PMS_P1;PMS_P2;Temp;Humidity;BMP_temperature;BMP_pressure;BME280_temperature;BME280_humidity;BME280_pressure;Samples;Min_cycle;Max_cycle;Signal;HPM_P1;HPM_P2
2023/10/31 00:01:55;;;;;;;9.07;3.08;;;11.20;99.90;;;10.44;100.00;99616.88;4185408;28;20029;-81
2023/10/31 00:03:56;;;;;;;5.72;2.55;;;11.20;99.90;;;10.38;100.00;99625.50;4203169;28;20414;-81
2023/10/31 00:05:57;;;;;;;7.65;3.20;;;11.20;99.90;;;10.42;100.00;99634.69;4203042;28;20025;-82
2023/10/31 00:07:58;;;;;;;7.63;3.63;;;11.20;99.90;;;10.37;100.00;99637.84;4185152;28;20029;-81
2023/10/31 00:09:59;;;;;;;14.43;3.88;;;11.20;99.90;;;10.44;100.00;99648.50;4202879;28;20021;-81
2023/10/31 00:12:00;;;;;;;12.25;3.00;;;11.20;99.90;;;10.45;100.00;99636.97;4203043;28;20028;-79
2023/10/31 00:14:00;;;;;;;10.45;3.22;;;11.20;99.90;;;10.50;100.00;99643.31;4191853;28;20024;-79
2023/10/31 00:16:01;;;;;;;12.32;3.08;;;11.20;99.90;;;10.52;100.00;99640.50;4207486;28;20036;-81
2023/10/31 00:18:02;;;;;;;11.30;3.25;;;11.20;99.90;;;10.54;100.00;99628.75;4202419;28;20029;-81
2023/10/31 00:20:05;;;;;;;10.38;3.33;;;11.20;99.90;;;10.50;100.00;99631.97;4185179;28;20052;-81
2023/10/31 00:22:05;;;;;;;14.65;3.63;;;11.20;99.90;;;10.48;100.00;99633.97;4160431;28;20044;-81
2023/10/31 00:24:07;;;;;;;7.95;3.35;;;11.20;99.90;;;10.46;100.00;99631.50;4184800;28;20037;-81
2023/10/31 00:26:09;;;;;;;11.45;4.00;;;11.20;99.90;;;10.42;100.00;99637.34;4186008;28;20033;-81
2023/10/31 00:28:10;;;;;;;13.20;5.53;;;11.20;99.90;;;10.37;100.00;99637.84;4186127;28;20029;-81
2023/10/31 00:30:11;;;;;;;8.68;4.80;;;11.20;99.90;;;10.36;100.00;99640.69;4185039;28;20021;-81
2023/10/31 00:32:12;;;;;;;10.95;5.95;;;11.10;99.90;;;10.35;100.00;99647.78;4186162;28;20032;-82
2023/10/31 00:34:13;;;;;;;11.32;4.20;;;11.10;99.90;;;10.32;100.00;99658.69;4186123;28;20022;-81
2023/10/31 00:36:14;;;;;;;9.52;3.95;;;11.10;99.90;;;10.30;100.00;99651.97;4186056;28;20124;-81
2023/10/31 00:38:15;;;;;;;10.15;3.83;;;11.00;99.90;;;10.25;100.00;99649.03;4185892;28;20110;-81
2023/10/31 00:40:16;;;;;;;10.32;5.15;;;11.00;99.90;;;10.18;100.00;99648.13;4184894;28;20531;-81
2023/10/31 00:42:17;;;;;;;10.73;5.03;;;10.90;99.90;;;10.11;100.00;99641.91;4184741;28;20106;-82
2023/10/31 00:44:18;;;;;;;7.75;3.88;;;10.80;99.90;;;10.03;100.00;99648.88;4185931;28;20033;-82
2023/10/31 00:46:19;;;;;;;10.38;4.32;;;10.70;99.90;;;9.94;100.00;99647.34;4185833;28;20025;-82
2023/10/31 00:48:20;;;;;;;7.85;4.18;;;10.70;99.90;;;9.86;100.00;99657.09;4185888;28;20083;-81
2023/10/31 00:50:21;;;;;;;12.68;5.32;;;10.60;99.90;;;9.81;100.00;99660.28;4184618;28;20029;-81
2023/10/31 00:52:22;;;;;;;17.25;7.90;;;10.60;99.90;;;9.80;100.00;99648.09;4184356;28;20020;-81
2023/10/31 00:54:23;;;;;;;15.88;6.13;;;10.50;99.90;;;9.80;100.00;99656.00;4185676;28;20108;-81
2023/10/31 00:56:24;;;;;;;12.02;5.55;;;10.50;99.90;;;9.80;100.00;99663.06;4178894;28;20031;-81
2023/10/31 00:58:25;;;;;;;18.65;5.53;;;10.50;99.90;;;9.76;100.00;99665.25;4185701;28;20419;-81
2023/10/31 01:00:25;;;;;;;14.68;4.40;;;10.50;99.90;;;9.70;100.00;99660.72;4185538;28;20025;-80
2023/10/31 01:02:26;;;;;;;8.50;3.47;;;10.50;99.90;;;9.68;100.00;99660.03;4185701;28;20059;-81
2023/10/31 01:04:27;;;;;;;11.88;4.22;;;10.40;99.90;;;9.67;100.00;99670.78;4185599;28;20031;-81
2023/10/31 01:06:28;;;;;;;11.05;4.00;;;10.40;99.90;;;9.66;100.00;99675.22;4184253;28;20033;-81
2023/10/31 01:08:29;;;;;;;7.90;3.55;;;10.40;99.90;;;9.66;100.00;99667.31;4185237;28;20036;-81
2023/10/31 01:10:30;;;;;;;8.32;3.00;;;10.40;99.90;;;9.62;100.00;99668.66;4185624;28;20484;-81
2023/10/31 01:12:32;;;;;;;10.45;3.15;;;10.40;99.90;;;9.59;100.00;99676.09;4184300;28;20102;-81
2023/10/31 01:14:33;;;;;;;6.75;2.53;;;10.30;99.90;;;9.50;100.00;99682.41;4184281;28;20059;-81
2023/10/31 01:16:34;;;;;;;7.72;3.00;;;10.30;99.90;;;9.45;100.00;99691.66;4184041;28;20059;-81
2023/10/31 01:18:35;;;;;;;7.72;2.88;;;10.20;99.90;;;9.42;100.00;99691.16;4185462;28;20039;-81
2023/10/31 01:20:35;;;;;;;6.75;2.88;;;10.20;99.90;;;9.39;100.00;99694.16;4184971;28;20488;-81
2023/10/31 01:22:36;;;;;;;10.27;3.53;;;10.20;99.90;;;9.39;100.00;99705.50;4198610;28;20044;-80
2023/10/31 01:24:37;;;;;;;7.20;2.97;;;10.10;99.90;;;9.38;100.00;99711.75;4201711;28;20047;-80
2023/10/31 01:26:38;;;;;;;5.32;2.63;;;10.10;99.90;;;9.31;100.00;99699.47;4201812;28;20032;-80
2023/10/31 01:28:39;;;;;;;5.60;2.70;;;10.10;99.90;;;9.30;100.00;99698.66;4201135;28;20420;-80
2023/10/31 01:30:39;;;;;;;7.28;3.00;;;10.00;99.90;;;9.28;100.00;99705.06;4201916;28;20403;-81
2023/10/31 01:32:40;;;;;;;12.90;2.70;;;10.10;99.90;;;9.25;100.00;99700.16;4201762;28;20025;-81
2023/10/31 01:34:41;;;;;;;5.72;2.38;;;10.10;99.90;;;9.24;100.00;99704.59;4201959;28;20021;-81
2023/10/31 01:36:42;;;;;;;6.10;2.28;;;10.00;99.90;;;9.21;100.00;99712.84;4184255;28;20070;-81
2023/10/31 01:38:43;;;;;;;8.32;2.58;;;10.00;99.90;;;9.16;100.00;99719.59;4183718;28;20078;-81
2023/10/31 01:40:43;;;;;;;8.70;3.03;;;9.90;99.90;;;9.11;100.00;99732.47;4200993;28;20024;-81
2023/10/31 01:42:44;;;;;;;9.57;2.92;;;9.90;99.90;;;9.07;100.00;99736.41;4202014;28;20032;-81
2023/10/31 01:44:45;;;;;;;8.32;3.00;;;9.80;99.90;;;9.03;100.00;99750.88;4201748;28;20025;-80
2023/10/31 01:46:46;;;;;;;6.03;2.20;;;9.80;99.90;;;9.00;100.00;99753.84;4201662;28;20061;-80
2023/10/31 01:48:47;;;;;;;9.93;2.42;;;9.80;99.90;;;8.99;100.00;99762.75;4201492;28;20012;-81
2023/10/31 01:50:48;;;;;;;7.55;2.10;;;9.80;99.90;;;9.05;100.00;99760.25;4184191;28;20021;-80
2023/10/31 01:52:49;;;;;;;3.92;1.77;;;9.80;99.90;;;9.04;100.00;99758.63;4183693;28;20032;-80
2023/10/31 01:54:50;;;;;;;6.78;2.20;;;9.80;99.90;;;9.07;100.00;99768.00;4183927;28;20040;-80
2023/10/31 01:56:55;;;;;;;3.13;1.70;;;9.80;99.90;;;9.04;100.00;99768.31;4200432;28;20025;-80
2023/10/31 01:58:56;;;;;;;4.40;1.60;;;9.80;99.90;;;9.03;100.00;99767.50;4201672;28;20183;-79
2023/10/31 02:00:59;;;;;;;10.43;2.08;;;9.80;99.90;;;9.08;100.00;99769.63;4201712;28;20573;-79
2023/10/31 02:03:01;;;;;;;10.02;2.25;;;9.90;99.90;;;9.17;100.00;99779.94;4183934;28;20092;-81
2023/10/31 02:05:02;;;;;;;5.95;1.85;;;9.90;99.90;;;9.20;100.00;99776.16;4183912;28;20392;-80
2023/10/31 02:07:03;;;;;;;7.13;1.85;;;10.00;99.90;;;9.17;100.00;99773.88;4183874;28;20028;-79
2023/10/31 02:09:05;;;;;;;15.48;2.03;;;9.90;99.90;;;9.14;100.00;99782.13;4183643;28;20071;-80
2023/10/31 02:11:09;;;;;;;9.60;2.75;;;9.90;99.90;;;9.14;100.00;99776.84;4217136;28;20077;-80
2023/10/31 02:13:15;;;;;;;5.50;2.22;;;9.90;99.90;;;9.12;100.00;99792.78;4201540;28;20020;-81
2023/10/31 02:15:16;;;;;;;10.73;2.05;;;9.80;99.90;;;9.07;100.00;99784.59;4177434;28;20037;-81
2023/10/31 02:17:17;;;;;;;7.60;2.05;;;9.80;99.90;;;9.08;100.00;99801.22;4201563;28;20388;-80
2023/10/31 02:19:20;;;;;;;6.85;2.60;;;9.80;99.90;;;9.07;100.00;99789.84;4201675;28;20024;-81
2023/10/31 02:21:21;;;;;;;6.05;2.60;;;9.80;99.90;;;9.07;100.00;99799.56;4176005;28;20472;-80
2023/10/31 02:23:23;;;;;;;12.57;2.45;;;9.80;99.90;;;9.07;100.00;99804.81;4184796;28;20029;-81
2023/10/31 02:25:24;;;;;;;9.50;2.38;;;9.80;99.90;;;9.08;100.00;99815.16;4183706;28;20122;-81
2023/10/31 02:27:24;;;;;;;7.55;2.63;;;9.80;99.90;;;9.08;100.00;99822.25;4184686;28;20111;-80
2023/10/31 02:29:25;;;;;;;5.30;2.20;;;9.90;99.90;;;9.08;100.00;99824.88;4183521;28;20048;-80
2023/10/31 02:31:27;;;;;;;7.28;2.65;;;9.90;99.90;;;9.01;100.00;99832.63;4184872;28;20052;-81
2023/10/31 02:33:28;;;;;;;8.93;2.03;;;9.80;99.90;;;9.02;100.00;99830.81;4183645;28;20025;-81
2023/10/31 02:35:28;;;;;;;13.60;2.20;;;9.80;99.90;;;9.02;100.00;99838.72;4184727;28;20051;-81
2023/10/31 02:37:29;;;;;;;11.30;2.20;;;9.80;99.90;;;9.01;100.00;99839.69;4184407;28;20492;-80
2023/10/31 02:39:30;;;;;;;7.65;1.88;;;9.80;99.90;;;9.01;100.00;99851.03;4185083;28;20377;-81
2023/10/31 02:41:31;;;;;;;8.95;1.95;;;9.80;99.90;;;9.00;100.00;99843.28;4187927;28;20511;-81
2023/10/31 02:43:32;;;;;;;11.23;1.60;;;9.80;99.90;;;8.98;100.00;99840.84;4186692;28;20037;-80
2023/10/31 02:45:33;;;;;;;8.98;2.30;;;9.80;99.90;;;8.97;100.00;99841.81;4187657;28;20104;-81
2023/10/31 02:47:33;;;;;;;5.20;1.40;;;9.70;99.90;;;8.96;100.00;99842.00;4186598;28;20025;-81
2023/10/31 02:49:34;;;;;;;11.20;2.33;;;9.70;99.90;;;8.95;100.00;99835.09;4187819;28;20033;-81
2023/10/31 02:51:35;;;;;;;9.38;1.77;;;9.70;99.90;;;8.89;100.00;99842.69;4187641;28;20025;-82
2023/10/31 02:53:36;;;;;;;5.88;1.52;;;9.70;99.90;;;8.96;100.00;99847.28;4186197;28;20025;-81
2023/10/31 02:55:37;;;;;;;7.05;1.95;;;9.70;99.90;;;8.96;100.00;99844.63;4177245;28;20439;-81
2023/10/31 02:57:38;;;;;;;7.38;1.60;;;9.70;99.90;;;8.97;100.00;99846.25;4187647;28;20021;-81
2023/10/31 02:59:39;;;;;;;7.18;1.67;;;9.80;99.90;;;8.98;100.00;99853.16;4169833;28;20428;-81
2023/10/31 03:01:40;;;;;;;6.60;1.80;;;9.80;99.90;;;8.95;100.00;99858.75;4187572;28;20021;-80
2023/10/31 03:03:40;;;;;;;8.30;1.83;;;9.70;99.90;;;8.94;100.00;99857.94;4187560;28;20028;-81
2023/10/31 03:05:41;;;;;;;7.32;2.10;;;9.70;99.90;;;8.92;100.00;99859.09;4187595;28;20032;-81
2023/10/31 03:07:42;;;;;;;7.47;1.70;;;9.70;99.90;;;8.93;100.00;99860.75;4187327;28;20043;-81
2023/10/31 03:09:43;;;;;;;10.23;2.75;;;9.70;99.90;;;8.97;100.00;99872.56;4186425;28;20021;-81
2023/10/31 03:11:44;;;;;;;8.55;2.55;;;9.70;99.90;;;8.96;100.00;99863.03;4187481;28;20040;-81
2023/10/31 03:13:44;;;;;;;9.10;2.80;;;9.70;99.90;;;9.03;100.00;99874.53;4186262;28;20025;-81
2023/10/31 03:15:47;;;;;;;10.35;3.60;;;9.80;99.90;;;9.04;100.00;99881.44;4187335;28;20043;-81
2023/10/31 03:17:48;;;;;;;7.03;2.70;;;9.80;99.90;;;9.01;100.00;99879.13;4169226;28;20076;-81
2023/10/31 03:19:48;;;;;;;10.60;2.95;;;9.80;99.90;;;8.98;100.00;99890.00;4187147;28;20036;-82
2023/10/31 03:21:50;;;;;;;10.75;2.55;;;9.70;99.90;;;8.95;100.00;99885.06;4187097;28;20036;-82
2023/10/31 03:23:52;;;;;;;7.55;3.20;;;9.70;99.90;;;8.95;100.00;99891.16;4186043;28;20033;-82
2023/10/31 03:25:53;;;;;;;8.45;2.88;;;9.70;99.90;;;8.96;100.00;99895.41;4203787;28;20556;-81
2023/10/31 03:27:54;;;;;;;6.38;2.20;;;9.70;99.90;;;8.99;100.00;99899.53;4185781;28;20033;-81
2023/10/31 03:29:55;;;;;;;11.43;3.17;;;9.70;99.90;;;8.99;100.00;99892.44;4203744;28;20025;-81
2023/10/31 03:31:55;;;;;;;8.52;3.05;;;9.70;99.90;;;9.01;100.00;99901.00;4185915;28;20029;-82
2023/10/31 03:33:56;;;;;;;10.13;2.50;;;9.80;99.90;;;8.98;100.00;99909.22;4203597;28;20020;-81
2023/10/31 03:35:57;;;;;;;9.25;2.22;;;9.80;99.90;;;8.96;100.00;99905.13;4203461;28;20039;-81
2023/10/31 03:37:58;;;;;;;12.85;2.42;;;9.70;99.90;;;8.94;100.00;99914.97;4185710;28;20029;-81
2023/10/31 03:39:59;;;;;;;11.45;2.40;;;9.70;99.90;;;8.95;100.00;99914.00;4203452;28;20028;-81
2023/10/31 03:42:00;;;;;;;9.60;2.22;;;9.70;99.90;;;8.97;100.00;99922.53;4185600;28;20041;-81
2023/10/31 03:44:01;;;;;;;5.32;1.75;;;9.70;99.90;;;8.97;100.00;99925.16;4203336;28;20025;-81
2023/10/31 03:46:02;;;;;;;13.15;2.22;;;9.70;99.90;;;8.95;100.00;99921.88;4203411;28;20033;-81
2023/10/31 03:48:03;;;;;;;11.15;1.90;;;9.70;99.90;;;8.97;100.00;99931.25;4185688;28;20021;-81
2023/10/31 03:50:05;;;;;;;8.50;1.83;;;9.70;99.90;;;8.97;100.00;99927.78;4203397;28;20024;-81
2023/10/31 03:52:06;;;;;;;7.43;1.63;;;9.70;99.90;;;8.96;100.00;99934.06;4202421;28;20029;-81
2023/10/31 03:54:08;;;;;;;5.82;2.05;;;9.70;99.90;;;8.91;100.00;99926.66;4173812;28;20108;-82
2023/10/31 03:56:09;;;;;;;8.77;1.70;;;9.70;99.90;;;8.92;100.00;99935.38;4185571;28;20412;-82
2023/10/31 03:58:10;;;;;;;10.35;1.92;;;9.70;99.90;;;8.93;100.00;99945.72;4203227;28;20032;-81
2023/10/31 04:00:12;;;;;;;8.80;1.65;;;9.60;99.90;;;8.92;100.00;99944.09;4186949;28;20165;-82
2023/10/31 04:02:12;;;;;;;10.07;1.98;;;9.60;99.90;;;8.92;100.00;99948.53;4190237;28;20130;-81
2023/10/31 04:04:13;;;;;;;7.15;1.90;;;9.70;99.90;;;8.95;100.00;99945.56;4203194;28;20029;-81
2023/10/31 04:06:14;;;;;;;6.30;1.30;;;9.70;99.90;;;8.92;100.00;99948.53;4203037;28;20032;-82
2023/10/31 04:08:15;;;;;;;13.70;1.92;;;9.70;99.90;;;8.97;100.00;99956.72;4185043;28;20032;-82
2023/10/31 04:10:18;;;;;;;8.95;1.85;;;9.70;99.90;;;8.94;100.00;99963.16;4203247;28;20025;-81
2023/10/31 04:12:19;;;;;;;9.90;2.45;;;9.70;99.90;;;8.97;100.00;99956.72;4185192;28;20029;-82
2023/10/31 04:14:19;;;;;;;4.95;1.40;;;9.70;99.90;;;8.97;100.00;99965.44;4202910;28;20032;-82
2023/10/31 04:16:20;;;;;;;5.80;2.13;;;9.70;99.90;;;8.91;100.00;99971.38;4202765;28;20032;-82
2023/10/31 04:18:21;;;;;;;8.85;1.92;;;9.60;99.90;;;8.87;100.00;99970.88;4202888;28;20040;-81
2023/10/31 04:20:22;;;;;;;8.80;1.58;;;9.60;99.90;;;8.94;100.00;99971.03;4184962;28;20512;-82
2023/10/31 04:22:23;;;;;;;10.73;2.03;;;9.70;99.90;;;8.97;100.00;99975.16;4195189;28;20048;-82
2023/10/31 04:24:23;;;;;;;9.55;2.10;;;9.70;99.90;;;8.97;100.00;99973.34;4202663;28;20035;-82
2023/10/31 04:26:24;;;;;;;9.98;2.00;;;9.70;99.90;;;8.96;100.00;99970.88;4202388;28;20057;-81
2023/10/31 04:28:25;;;;;;;10.05;2.03;;;9.70;99.90;;;9.01;100.00;99973.84;4202759;28;20020;-81
2023/10/31 04:30:27;;;;;;;4.88;1.58;;;9.70;99.90;;;9.00;100.00;99983.53;4202655;28;20024;-81
2023/10/31 04:32:28;;;;;;;14.25;1.85;;;9.70;99.90;;;9.02;100.00;99986.00;4202546;28;20025;-82
2023/10/31 04:34:29;;;;;;;9.30;1.50;;;9.70;99.90;;;9.02;100.00;99986.00;4202520;28;20040;-81
2023/10/31 04:36:30;;;;;;;10.10;2.58;;;9.80;99.90;;;9.01;100.00;99979.94;4202642;28;20399;-81
2023/10/31 04:38:30;;;;;;;9.30;1.80;;;9.80;99.90;;;9.03;100.00;99985.84;4202169;28;20050;-82
2023/10/31 04:40:31;;;;;;;11.43;1.67;;;9.80;99.90;;;8.98;100.00;99987.31;4202519;28;20025;-82
2023/10/31 04:42:35;;;;;;;15.00;2.53;;;9.70;99.90;;;8.97;100.00;100004.06;4184683;28;20043;-82
2023/10/31 04:44:36;;;;;;;10.73;2.00;;;9.70;99.90;;;8.97;100.00;99999.66;4202485;28;20029;-82
2023/10/31 04:46:37;;;;;;;12.70;1.65;;;9.70;99.90;;;8.97;100.00;99996.19;4184601;28;20047;-82
2023/10/31 04:48:38;;;;;;;10.82;2.10;;;9.70;99.90;;;8.99;100.00;99999.50;4203919;28;20021;-82
2023/10/31 04:50:39;;;;;;;11.40;2.35;;;9.70;99.90;;;8.98;100.00;100009.19;4203576;28;20400;-82
2023/10/31 04:52:40;;;;;;;13.10;2.45;;;9.70;99.90;;;8.94;100.00;100002.59;4202220;28;20021;-82
2023/10/31 04:54:41;;;;;;;7.22;2.33;;;9.70;99.90;;;8.99;100.00;100012.66;4202337;28;20051;-81
2023/10/31 04:56:41;;;;;;;11.32;1.95;;;9.70;99.90;;;8.98;100.00;100013.63;4202325;28;20510;-81
2023/10/31 04:58:43;;;;;;;11.48;2.40;;;9.70;99.90;;;8.96;100.00;100015.59;4176129;28;20032;-81
2023/10/31 05:00:44;;;;;;;18.05;3.72;;;9.80;99.90;;;8.98;100.00;100024.97;4184479;28;20524;-82
2023/10/31 05:02:45;;;;;;;12.85;3.03;;;9.80;99.90;;;8.97;100.00;100025.13;4202080;28;20033;-82
2023/10/31 05:04:50;;;;;;;9.93;3.22;;;9.80;99.90;;;8.95;100.00;100021.84;4182524;28;20028;-82
2023/10/31 05:06:51;;;;;;;12.70;3.00;;;9.70;99.90;;;8.98;100.00;100042.56;4199635;28;20048;-82
2023/10/31 05:08:52;;;;;;;10.93;3.45;;;9.70;99.90;;;8.98;100.00;100030.22;4196163;28;20145;-82
2023/10/31 05:10:52;;;;;;;10.60;2.85;;;9.80;99.90;;;9.04;100.00;100031.38;4184249;28;20031;-81
2023/10/31 05:12:53;;;;;;;14.77;2.75;;;9.80;99.90;;;9.01;100.00;100036.97;4202019;28;20035;-81
2023/10/31 05:14:54;;;;;;;9.93;2.90;;;9.80;99.90;;;9.07;100.00;100041.59;4201948;28;20172;-81
2023/10/31 05:16:55;;;;;;;8.13;2.20;;;9.80;99.90;;;9.06;100.00;100040.75;4202107;28;20025;-81
2023/10/31 05:18:59;;;;;;;8.02;2.28;;;9.90;99.90;;;9.04;100.00;100041.91;4198205;28;20047;-82
2023/10/31 05:21:00;;;;;;;11.13;2.20;;;9.90;99.90;;;9.09;100.00;100050.13;4201704;28;20057;-82
2023/10/31 05:23:01;;;;;;;8.50;1.83;;;9.90;99.90;;;9.11;100.00;100059.50;4201692;28;20052;-82
2023/10/31 05:25:02;;;;;;;12.02;2.60;;;9.90;99.90;;;9.11;100.00;100053.44;4202002;28;20029;-82
2023/10/31 05:27:05;;;;;;;10.00;2.33;;;9.90;99.90;;;9.14;100.00;100061.00;4184297;28;20048;-82
2023/10/31 05:29:05;;;;;;;6.00;1.67;;;9.90;99.90;;;9.16;100.00;100064.28;4182115;28;20583;-82
2023/10/31 05:31:06;;;;;;;12.43;1.95;;;9.90;99.90;;;9.20;100.00;100058.50;4184033;28;20021;-82
2023/10/31 05:33:07;;;;;;;15.32;2.22;;;9.90;99.90;;;9.14;100.00;100059.16;4184130;28;20025;-82
2023/10/31 05:35:08;;;;;;;13.55;2.40;;;10.00;99.90;;;9.20;100.00;100068.25;4201986;28;20024;-82
2023/10/31 05:37:09;;;;;;;9.48;2.22;;;10.00;99.90;;;9.24;100.00;100064.28;4197426;28;20020;-82
2023/10/31 05:39:10;;;;;;;11.57;2.63;;;10.00;99.90;;;9.22;100.00;100067.09;4185769;28;20028;-82
2023/10/31 05:41:11;;;;;;;12.65;2.28;;;10.00;99.90;;;9.25;100.00;100077.28;4201866;28;20029;-82
2023/10/31 05:43:12;;;;;;;15.75;3.63;;;10.00;99.90;;;9.26;100.00;100073.66;4201907;28;20513;-82
2023/10/31 05:45:13;;;;;;;14.40;2.97;;;10.00;99.90;;;9.28;100.00;100081.41;4201725;28;20025;-82
2023/10/31 05:47:14;;;;;;;13.63;2.90;;;10.00;99.90;;;9.31;100.00;100076.63;4183946;28;20018;-82
2023/10/31 05:49:14;;;;;;;19.73;3.33;;;10.10;99.90;;;9.35;100.00;100083.19;4210782;28;20091;-81
2023/10/31 05:51:18;;;;;;;10.77;2.50;;;10.10;99.90;;;9.38;100.00;100082.03;4183975;28;20033;-82
2023/10/31 05:53:19;;;;;;;12.32;2.05;;;10.20;99.90;;;9.38;100.00;100084.69;4174699;28;20508;-81
2023/10/31 05:55:19;;;;;;;9.00;2.55;;;10.20;99.90;;;9.40;100.00;100080.09;4198637;28;20039;-81
2023/10/31 05:57:20;;;;;;;22.23;3.55;;;10.20;99.90;;;9.41;100.00;100082.53;4183917;28;20036;-82
2023/10/31 05:59:21;;;;;;;16.55;2.25;;;10.20;99.90;;;9.39;100.00;100084.53;4201560;28;20109;-81
2023/10/31 06:01:22;;;;;;;11.55;2.60;;;10.20;99.90;;;9.36;100.00;100082.22;4201624;28;20050;-81
2023/10/31 06:03:23;;;;;;;12.25;2.08;;;10.20;99.90;;;9.37;100.00;100090.94;4201589;28;20514;-81
2023/10/31 06:05:23;;;;;;;9.25;1.83;;;10.20;99.90;;;9.34;100.00;100091.28;4201531;28;20044;-82
2023/10/31 06:07:24;;;;;;;14.48;2.40;;;10.10;99.90;;;9.32;100.00;100093.22;4201464;28;20021;-82
2023/10/31 06:09:25;;;;;;;14.32;2.42;;;10.10;99.90;;;9.29;100.00;100093.56;4196045;28;20029;-82
2023/10/31 06:11:26;;;;;;;9.23;2.40;;;10.10;99.90;;;9.28;100.00;100097.19;4201459;28;20017;-82
2023/10/31 06:13:27;;;;;;;10.32;2.53;;;10.00;99.90;;;9.29;100.00;100104.91;4201543;28;20031;-81
2023/10/31 06:15:28;;;;;;;11.38;2.05;;;10.10;99.90;;;9.36;100.00;100107.72;4203308;28;20020;-81
2023/10/31 06:17:30;;;;;;;7.03;2.08;;;10.10;99.90;;;9.43;100.00;100111.34;4204825;28;20028;-81
2023/10/31 06:19:37;;;;;;;13.15;2.38;;;10.20;99.90;;;9.45;100.00;100112.00;4200470;28;20025;-81
2023/10/31 06:21:38;;;;;;;15.77;2.20;;;10.20;99.90;;;9.37;100.00;100117.25;4209651;28;20052;-82
2023/10/31 06:23:39;;;;;;;12.90;2.40;;;10.10;99.90;;;9.27;100.00;100113.97;4204722;28;20032;-82
2023/10/31 06:25:40;;;;;;;14.15;3.70;;;10.10;99.90;;;9.23;100.00;100120.50;4187015;28;20032;-82
2023/10/31 06:27:40;;;;;;;11.30;2.13;;;10.00;99.90;;;9.21;100.00;100120.69;4204503;28;20067;-82
2023/10/31 06:29:41;;;;;;;14.50;2.30;;;10.00;99.90;;;9.24;100.00;100125.63;4187342;28;20025;-81
2023/10/31 06:31:42;;;;;;;14.02;2.70;;;10.00;99.90;;;9.27;100.00;100124.47;4186851;28;20029;-82
2023/10/31 06:33:43;;;;;;;12.18;2.75;;;10.10;99.90;;;9.30;100.00;100132.88;4204522;28;20037;-82
2023/10/31 06:35:44;;;;;;;10.70;2.30;;;10.10;99.90;;;9.30;100.00;100135.50;4204460;28;20032;-81
2023/10/31 06:37:44;;;;;;;13.50;2.45;;;10.10;99.90;;;9.29;100.00;100133.03;4203776;28;20037;-82
2023/10/31 06:39:45;;;;;;;16.33;2.40;;;10.10;99.90;;;9.29;100.00;100135.66;4193418;28;20070;-82
2023/10/31 06:41:46;;;;;;;15.25;3.05;;;10.10;99.90;;;9.30;100.00;100142.56;4187642;28;20039;-82
2023/10/31 06:43:47;;;;;;;14.13;2.40;;;10.10;99.90;;;9.39;100.00;100134.53;4207118;28;20494;-82
2023/10/31 06:45:48;;;;;;;12.32;2.33;;;10.20;99.90;;;9.48;100.00;100135.38;4186453;28;20080;-82
2023/10/31 06:47:49;;;;;;;12.68;1.77;;;10.30;99.90;;;9.58;100.00;100135.22;4186635;28;20032;-82
2023/10/31 06:49:49;;;;;;;19.58;3.15;;;10.30;99.90;;;9.65;100.00;100144.91;4186512;28;20036;-82
2023/10/31 06:51:50;;;;;;;12.95;2.03;;;10.40;99.90;;;9.70;100.00;100145.25;4204234;28;20024;-82
2023/10/31 06:53:51;;;;;;;8.30;2.03;;;10.40;99.90;;;9.77;100.00;100132.22;4191780;28;20098;-82
2023/10/31 06:55:52;;;;;;;19.35;1.90;;;10.50;99.90;;;9.92;100.00;100157.75;4186527;28;20071;-81
2023/10/31 06:57:53;;;;;;;12.27;2.58;;;10.60;99.90;;;10.02;100.00;100158.41;4204092;28;20031;-82
2023/10/31 06:59:53;;;;;;;14.38;2.17;;;10.70;99.90;;;10.01;100.00;100159.38;4204124;28;20028;-82
2023/10/31 07:01:54;;;;;;;12.77;2.83;;;10.70;99.90;;;9.93;100.00;100167.31;4204051;28;20028;-82
2023/10/31 07:03:55;;;;;;;10.77;2.95;;;10.70;99.90;;;9.87;100.00;100178.50;4186372;28;20092;-82
2023/10/31 07:05:56;;;;;;;12.45;3.10;;;10.60;99.90;;;9.80;100.00;100182.78;4203957;28;20025;-82
2023/10/31 07:07:57;;;;;;;11.43;2.05;;;10.60;99.90;;;9.75;100.00;100187.72;4184259;28;20107;-82
2023/10/31 07:09:58;;;;;;;21.38;3.97;;;10.60;99.90;;;9.77;100.00;100188.38;4201440;28;20028;-81
2023/10/31 07:11:59;;;;;;;14.93;2.63;;;10.50;99.90;;;9.71;100.00;100183.75;4186350;28;20586;-81
2023/10/31 07:14:03;;;;;;;11.25;2.30;;;10.50;99.90;;;9.68;100.00;100191.97;4204006;28;20025;-82
2023/10/31 07:16:05;;;;;;;13.18;2.63;;;10.50;99.90;;;9.65;100.00;100188.84;4186089;28;20608;-81
2023/10/31 07:18:07;;;;;;;12.32;2.10;;;10.40;99.90;;;9.66;100.00;100191.34;4201890;28;20036;-82
2023/10/31 07:20:08;;;;;;;13.18;2.42;;;10.40;99.90;;;9.71;100.00;100194.28;4203942;28;20159;-81
2023/10/31 07:22:09;;;;;;;13.48;1.80;;;10.50;99.90;;;9.73;100.00;100189.69;4203310;28;20052;-81
2023/10/31 07:24:10;;;;;;;12.80;2.97;;;10.50;99.90;;;9.68;100.00;100197.25;4203780;28;20043;-81
2023/10/31 07:26:10;;;;;;;9.15;1.80;;;10.50;99.90;;;9.71;100.00;100199.56;4184772;28;20033;-81
2023/10/31 07:28:11;;;;;;;13.38;1.63;;;10.50;99.90;;;9.72;100.00;100198.56;4200225;28;20017;-81
2023/10/31 07:30:13;;;;;;;11.40;2.15;;;10.50;99.90;;;9.71;100.00;100199.56;4194268;28;20036;-81
2023/10/31 07:32:13;;;;;;;8.65;1.73;;;10.50;99.90;;;9.72;100.00;100206.47;4185961;28;20059;-81
2023/10/31 07:34:15;;;;;;;10.27;1.80;;;10.50;99.90;;;9.73;100.00;100210.78;4203537;28;20089;-80
2023/10/31 07:36:16;;;;;;;10.27;2.35;;;10.50;99.90;;;9.76;100.00;100212.25;4203631;28;20137;-81
2023/10/31 07:38:17;;;;;;;11.45;2.20;;;10.50;99.90;;;9.77;100.00;100209.44;4203501;28;20021;-81
2023/10/31 07:40:18;;;;;;;18.77;2.95;;;10.50;99.90;;;9.83;100.00;100219.31;4186014;28;20472;-81
2023/10/31 07:42:19;;;;;;;8.50;2.50;;;10.60;99.90;;;9.92;100.00;100201.69;4203486;28;20025;-81
2023/10/31 07:44:20;;;;;;;10.43;2.25;;;10.70;99.90;;;10.17;100.00;100215.72;4203608;28;20082;-81
2023/10/31 07:46:21;;;;;;;23.50;7.40;;;10.90;99.90;;;10.39;100.00;100209.78;4209926;28;20033;-81
2023/10/31 07:48:22;;;;;;;42.08;14.73;;;11.10;99.90;;;10.63;100.00;100212.38;4181170;28;20024;-80
2023/10/31 07:50:22;;;;;;;41.08;16.20;;;11.20;99.90;;;10.83;100.00;100221.53;4199804;28;20021;-79
2023/10/31 07:52:23;;;;;;;25.60;5.03;;;11.40;99.90;;;10.91;100.00;100215.38;4203129;28;20051;-80
2023/10/31 07:54:24;;;;;;;22.40;5.55;;;11.50;99.90;;;10.90;100.00;100227.75;4203384;28;20406;-80
2023/10/31 07:56:25;;;;;;;19.80;4.90;;;11.50;99.90;;;10.85;100.00;100222.16;4203347;28;20040;-79
2023/10/31 07:58:26;;;;;;;18.00;4.53;;;11.50;99.90;;;10.91;100.00;100218.84;4198353;28;20095;-79
2023/10/31 08:00:27;;;;;;;18.48;3.92;;;11.60;99.90;;;10.89;100.00;100233.22;4202639;28;20097;-80
2023/10/31 08:02:28;;;;;;;17.95;3.42;;;11.60;99.90;;;10.89;100.00;100234.03;4203217;28;20028;-81
2023/10/31 08:04:32;;;;;;;8.80;2.95;;;11.60;99.90;;;10.91;100.00;100239.97;4185326;28;20511;-82
2023/10/31 08:06:33;;;;;;;17.48;5.95;;;11.60;99.90;;;10.96;100.00;100245.53;4185699;28;20068;-81
2023/10/31 08:08:34;;;;;;;18.00;4.40;;;11.60;99.90;;;10.99;100.00;100250.47;4199516;28;20057;-82
2023/10/31 08:10:35;;;;;;;23.95;4.50;;;11.70;99.90;;;10.97;100.00;100246.38;4203167;28;20503;-81
2023/10/31 08:12:36;;;;;;;13.50;4.22;;;11.70;99.90;;;10.95;100.00;100251.84;4203215;28;20032;-82
2023/10/31 08:14:37;;;;;;;18.50;5.65;;;11.70;99.90;;;10.92;100.00;100244.25;4202947;28;20082;-81
2023/10/31 08:16:38;;;;;;;13.63;4.15;;;11.70;99.90;;;10.91;100.00;100242.59;4185126;28;20468;-81
2023/10/31 08:18:38;;;;;;;17.73;4.60;;;11.70;99.90;;;10.90;100.00;100248.84;4185181;28;20021;-81
2023/10/31 08:20:39;;;;;;;19.88;7.82;;;11.60;99.90;;;10.91;100.00;100253.16;4200322;28;20028;-81
2023/10/31 08:22:42;;;;;;;10.32;2.88;;;11.70;99.90;;;10.94;100.00;100252.81;4196011;28;20063;-81
2023/10/31 08:24:43;;;;;;;14.85;2.30;;;11.70;99.90;;;10.99;100.00;100254.97;4202860;28;20545;-81
2023/10/31 08:26:44;;;;;;;16.58;2.75;;;11.70;99.90;;;11.03;100.00;100256.25;4202618;28;20028;-81